Donnie Sonier — WDF9285 — position and weather

sailwx.info

Track history (hours):
 
Tides and Currents Weather Stations Pressure Air Temp Water Temp Dewpoint Dewpoint Depression Visibility Wind Speed Wind Dir Waves Ship Positions

Donnie Sonier

Owner: LeBeouf Bros. Towing, LLC, Houma, LA. More information available from US FCC via Universal Licensing System and Coast Guard Vessel Documentation Center.

Last reported at 2015-Feb-18 11:04 UTC. Time now 2015-Feb-27 00:37 UTC.
Position N 29°21' W 094°49'.
Warning: this ship's position is 8 days out of date.

Length 22 m.

Type: Tug. MMSI: 367503580.

Date/timePositionNaut miles runAvg speedWind from/ knotsBaromVisibWave heightAir tempDewpointWater temp
2015-Feb-18 11:04N 29°21' W 094°49'10 5.6
2015-Feb-18 09:15N 29°31' W 094°53'4 5.9
2015-Feb-18 08:33N 29°34' W 094°55'6 5.8
2015-Feb-18 07:33N 29°39' W 094°58'5 5.5
2015-Feb-18 06:33N 29°44' W 095°02'4 3.8
2015-Feb-18 05:33N 29°47' W 095°04'1 0.6
2015-Feb-18 04:31N 29°47' W 095°04'2 1.6
2015-Feb-18 03:33N 29°46' W 095°06'0 0.0
2015-Feb-18 02:28N 29°46' W 095°06'0 0.0
2015-Feb-18 01:33N 29°46' W 095°06'0 0.0
2015-Feb-18 00:33N 29°46' W 095°06'0 0.0
2015-Feb-17 23:33N 29°46' W 095°06'0 0.0
2015-Feb-17 22:33N 29°46' W 095°06'0 0.0
2015-Feb-17 21:33N 29°46' W 095°06'0 0.0
2015-Feb-17 20:33N 29°46' W 095°06'0 0.0
2015-Feb-17 19:33N 29°46' W 095°06'0 0.0
2015-Feb-17 17:33N 29°46' W 095°06'0 0.0
2015-Feb-17 16:33N 29°46' W 095°06'0 0.0
2015-Feb-17 15:33N 29°46' W 095°06'2 1.8
2015-Feb-17 14:21N 29°47' W 095°04'1 1.2
2015-Feb-17 13:31N 29°47' W 095°05'2 2.0
2015-Feb-17 12:33N 29°45' W 095°06'0 0.0
2015-Feb-17 11:33N 29°45' W 095°06'0 0.0
2015-Feb-17 10:33N 29°45' W 095°06'0 0.0
2015-Feb-17 09:33N 29°45' W 095°06'0 0.0
2015-Feb-17 08:33N 29°45' W 095°06'0 0.0
2015-Feb-17 07:33N 29°45' W 095°06'0 0.0
2015-Feb-17 06:33N 29°45' W 095°06'0 0.0
2015-Feb-17 05:33N 29°45' W 095°06'0 0.0
2015-Feb-17 04:33N 29°45' W 095°06'0 0.0
2015-Feb-17 03:33N 29°45' W 095°06'0 0.0
2015-Feb-17 02:33N 29°45' W 095°06'0 0.0
2015-Feb-17 01:33N 29°45' W 095°06'0 0.0
2015-Feb-17 00:33N 29°45' W 095°06'0 0.0
2015-Feb-16 23:33N 29°45' W 095°06'0 0.0
2015-Feb-16 22:33N 29°45' W 095°06'0 0.0
2015-Feb-16 21:33N 29°45' W 095°06'0 0.0
2015-Feb-16 20:33N 29°45' W 095°06'0 0.0
2015-Feb-16 19:33N 29°45' W 095°06'0 0.0
2015-Feb-16 18:33N 29°45' W 095°06'0 0.0
2015-Feb-16 17:33N 29°45' W 095°06'0 0.0
2015-Feb-16 16:33N 29°45' W 095°06'0 0.0
2015-Feb-16 15:33N 29°45' W 095°06'0 0.0
2015-Feb-16 14:31N 29°45' W 095°06'0 0.0
2015-Feb-16 13:33N 29°45' W 095°06'0 0.0
2015-Feb-16 12:33N 29°45' W 095°06'0 0.1
2015-Feb-16 11:33N 29°45' W 095°06'3 3.0
2015-Feb-16 10:32N 29°48' W 095°04'2 1.8
2015-Feb-16 09:27N 29°46' W 095°05'1 0.5
2015-Feb-16 07:25N 29°46' W 095°06'0 0.0
2015-Feb-16 06:30N 29°46' W 095°06'0 0.0
2015-Feb-16 05:28N 29°46' W 095°06'0 0.0
2015-Feb-16 04:27N 29°46' W 095°06'0 0.0
2015-Feb-16 02:23N 29°46' W 095°06'0 0.0
2015-Feb-16 01:33N 29°46' W 095°06'0 0.0
2015-Feb-16 00:33N 29°46' W 095°06'0 0.0
2015-Feb-15 23:31N 29°46' W 095°06'0 0.0
2015-Feb-15 22:26N 29°46' W 095°06'0 0.0
2015-Feb-15 21:32N 29°46' W 095°06'0 0.0
2015-Feb-15 20:31N 29°46' W 095°06'0 0.0
2015-Feb-15 19:33N 29°46' W 095°06'0 0.0
2015-Feb-15 18:33N 29°46' W 095°06'0 0.0
2015-Feb-15 17:33N 29°46' W 095°06'0 0.0
2015-Feb-15 16:33N 29°46' W 095°06'0 0.0
2015-Feb-15 15:15N 29°46' W 095°06'0 0.0
2015-Feb-15 05:10N 29°46' W 095°06'0 0.0
2015-Feb-15 04:27N 29°46' W 095°06'0 0.0
2015-Feb-15 03:33N 29°46' W 095°06'0 0.0
2015-Feb-15 02:33N 29°46' W 095°06'1 1.3
2015-Feb-15 01:32N 29°47' W 095°05'0 0.1
2015-Feb-14 23:18N 29°46' W 095°05'2 2.5
2015-Feb-14 22:33N 29°45' W 095°06'5 4.8
2015-Feb-14 21:33N 29°45' W 095°12'1 1.4
2015-Feb-14 20:33N 29°44' W 095°13'0 0.0
2015-Feb-14 19:33N 29°44' W 095°13'0 0.0
2015-Feb-14 18:33N 29°44' W 095°13'0 0.0
2015-Feb-14 17:33N 29°44' W 095°13'0 0.0
2015-Feb-14 16:33N 29°44' W 095°13'0 0.0
2015-Feb-14 15:33N 29°44' W 095°13'0 0.0
2015-Feb-14 14:33N 29°44' W 095°13'0 0.0
2015-Feb-14 13:13N 29°44' W 095°13'0 0.0
2015-Feb-14 12:33N 29°44' W 095°13'0 0.0
2015-Feb-14 11:33N 29°44' W 095°13'0 0.0
2015-Feb-14 10:33N 29°44' W 095°13'0 0.0
2015-Feb-14 09:27N 29°44' W 095°13'0 0.0
2015-Feb-14 08:33N 29°44' W 095°13'0 0.0
2015-Feb-14 07:33N 29°44' W 095°13'0 0.0
2015-Feb-14 06:33N 29°44' W 095°13'0 0.0
2015-Feb-14 05:33N 29°44' W 095°13'0 0.0
2015-Feb-14 04:34N 29°44' W 095°13'0 0.0
2015-Feb-14 03:33N 29°44' W 095°13'0 0.0
2015-Feb-14 02:33N 29°44' W 095°13'0 0.0
2015-Feb-14 01:33N 29°44' W 095°13'0 0.0
2015-Feb-14 00:33N 29°44' W 095°13'0 0.0
2015-Feb-13 23:33N 29°44' W 095°13'0 0.0
2015-Feb-13 22:33N 29°44' W 095°13'0 0.0
2015-Feb-13 21:33N 29°44' W 095°13'3 2.8
2015-Feb-13 20:33N 29°45' W 095°10'3 2.8
2015-Feb-13 19:33N 29°45' W 095°06'0 0.0
2015-Feb-13 18:33N 29°45' W 095°06'0 0.0
2015-Feb-13 17:33N 29°45' W 095°06'0 0.0
2015-Feb-13 16:33N 29°45' W 095°06'0 0.0
2015-Feb-13 15:33N 29°45' W 095°06'0 0.0
2015-Feb-13 14:33N 29°45' W 095°06'0 0.0
2015-Feb-13 13:33N 29°45' W 095°06'0 0.0
2015-Feb-13 12:33N 29°45' W 095°06'0 0.0
2015-Feb-13 11:33N 29°45' W 095°06'0 0.0
2015-Feb-13 10:33N 29°45' W 095°06'0 0.0
2015-Feb-13 09:33N 29°45' W 095°06'0 0.0
2015-Feb-13 08:33N 29°45' W 095°06'0 0.0
2015-Feb-13 07:33N 29°45' W 095°06'0 0.0
2015-Feb-13 06:33N 29°45' W 095°06'0 0.0
2015-Feb-13 05:33N 29°45' W 095°06'0 0.0
2015-Feb-13 04:33N 29°45' W 095°06'0 0.0
2015-Feb-13 03:33N 29°45' W 095°06'0 0.0
2015-Feb-13 02:33N 29°45' W 095°06'0 0.0
2015-Feb-13 01:33N 29°45' W 095°06'0 0.0
2015-Feb-13 00:34N 29°45' W 095°06'0 0.0
2015-Feb-12 23:33N 29°45' W 095°06'2 1.5
2015-Feb-12 22:33N 29°46' W 095°05'2 1.8
2015-Feb-12 21:33N 29°47' W 095°04'2 2.0
2015-Feb-12 20:33N 29°47' W 095°06'0 0.0
2015-Feb-12 19:33N 29°47' W 095°06'0 0.0
2015-Feb-12 18:33N 29°47' W 095°06'0 0.0
2015-Feb-12 17:33N 29°47' W 095°06'0 0.0
2015-Feb-12 16:33N 29°47' W 095°06'0 0.0
2015-Feb-12 15:33N 29°47' W 095°06'0 0.0
2015-Feb-12 14:33N 29°47' W 095°06'0 0.0
2015-Feb-12 13:33N 29°47' W 095°06'0 0.0
2015-Feb-12 12:33N 29°47' W 095°06'0 0.0
2015-Feb-12 11:33N 29°47' W 095°06'0 0.0
2015-Feb-12 10:33N 29°47' W 095°06'0 0.0
2015-Feb-12 09:33N 29°47' W 095°06'0 0.0
2015-Feb-12 08:33N 29°47' W 095°06'0 0.0
2015-Feb-12 07:33N 29°47' W 095°06'0 0.0
2015-Feb-12 06:33N 29°47' W 095°06'0 0.0
2015-Feb-12 05:33N 29°47' W 095°06'0 0.0
2015-Feb-12 04:33N 29°47' W 095°06'0 0.0
2015-Feb-12 03:33N 29°47' W 095°06'0 0.0
2015-Feb-12 02:33N 29°47' W 095°06'0 0.0
2015-Feb-12 01:33N 29°47' W 095°06'0 0.0
2015-Feb-12 00:33N 29°47' W 095°06'0 0.0
2015-Feb-11 23:33N 29°47' W 095°06'0 0.0
2015-Feb-11 22:33N 29°47' W 095°06'0 0.0
2015-Feb-11 21:33N 29°47' W 095°06'1 1.4
2015-Feb-11 20:33N 29°46' W 095°06'0 0.0
2015-Feb-11 19:33N 29°46' W 095°06'2 2.3
2015-Feb-11 18:33N 29°47' W 095°04'2 2.0
2015-Feb-11 17:33N 29°45' W 095°04'5 4.8
2015-Feb-11 16:33N 29°42' W 094°60'7 7.0
2015-Feb-11 15:33N 29°36' W 094°56'7 7.2
2015-Feb-11 14:33N 29°29' W 094°52'  
Track history (hours):
 
Tides and Currents Weather Stations Pressure Air Temp Water Temp Dewpoint Dewpoint Depression Visibility Wind Speed Wind Dir Waves Ship Positions

Donnie Sonier

Owner: LeBeouf Bros. Towing, LLC, Houma, LA. More information available from US FCC via Universal Licensing System and Coast Guard Vessel Documentation Center.

Last reported at 2015-Feb-18 11:04 UTC. Time now 2015-Feb-27 00:37 UTC.
Position N 29°21' W 094°49'.
Warning: this ship's position is 8 days out of date.

Length 22 m.

Type: Tug. MMSI: 367503580.

Date/timePositionNaut miles runAvg speedWind from/ knotsBaromVisibWave heightAir tempDewpointWater temp
2015-Feb-18 11:04N 29°21' W 094°49'10 5.6
2015-Feb-18 09:15N 29°31' W 094°53'4 5.9
2015-Feb-18 08:33N 29°34' W 094°55'6 5.8
2015-Feb-18 07:33N 29°39' W 094°58'5 5.5
2015-Feb-18 06:33N 29°44' W 095°02'4 3.8
2015-Feb-18 05:33N 29°47' W 095°04'1 0.6
2015-Feb-18 04:31N 29°47' W 095°04'2 1.6
2015-Feb-18 03:33N 29°46' W 095°06'0 0.0
2015-Feb-18 02:28N 29°46' W 095°06'0 0.0
2015-Feb-18 01:33N 29°46' W 095°06'0 0.0
2015-Feb-18 00:33N 29°46' W 095°06'0 0.0
2015-Feb-17 23:33N 29°46' W 095°06'0 0.0
2015-Feb-17 22:33N 29°46' W 095°06'0 0.0
2015-Feb-17 21:33N 29°46' W 095°06'0 0.0
2015-Feb-17 20:33N 29°46' W 095°06'0 0.0
2015-Feb-17 19:33N 29°46' W 095°06'0 0.0
2015-Feb-17 17:33N 29°46' W 095°06'0 0.0
2015-Feb-17 16:33N 29°46' W 095°06'0 0.0
2015-Feb-17 15:33N 29°46' W 095°06'2 1.8
2015-Feb-17 14:21N 29°47' W 095°04'1 1.2
2015-Feb-17 13:31N 29°47' W 095°05'2 2.0
2015-Feb-17 12:33N 29°45' W 095°06'0 0.0
2015-Feb-17 11:33N 29°45' W 095°06'0 0.0
2015-Feb-17 10:33N 29°45' W 095°06'0 0.0
2015-Feb-17 09:33N 29°45' W 095°06'0 0.0
2015-Feb-17 08:33N 29°45' W 095°06'0 0.0
2015-Feb-17 07:33N 29°45' W 095°06'0 0.0
2015-Feb-17 06:33N 29°45' W 095°06'0 0.0
2015-Feb-17 05:33N 29°45' W 095°06'0 0.0
2015-Feb-17 04:33N 29°45' W 095°06'0 0.0
2015-Feb-17 03:33N 29°45' W 095°06'0 0.0
2015-Feb-17 02:33N 29°45' W 095°06'0 0.0
2015-Feb-17 01:33N 29°45' W 095°06'0 0.0
2015-Feb-17 00:33N 29°45' W 095°06'0 0.0
2015-Feb-16 23:33N 29°45' W 095°06'0 0.0
2015-Feb-16 22:33N 29°45' W 095°06'0 0.0
2015-Feb-16 21:33N 29°45' W 095°06'0 0.0
2015-Feb-16 20:33N 29°45' W 095°06'0 0.0
2015-Feb-16 19:33N 29°45' W 095°06'0 0.0
2015-Feb-16 18:33N 29°45' W 095°06'0 0.0
2015-Feb-16 17:33N 29°45' W 095°06'0 0.0
2015-Feb-16 16:33N 29°45' W 095°06'0 0.0
2015-Feb-16 15:33N 29°45' W 095°06'0 0.0
2015-Feb-16 14:31N 29°45' W 095°06'0 0.0
2015-Feb-16 13:33N 29°45' W 095°06'0 0.0
2015-Feb-16 12:33N 29°45' W 095°06'0 0.1
2015-Feb-16 11:33N 29°45' W 095°06'3 3.0
2015-Feb-16 10:32N 29°48' W 095°04'2 1.8
2015-Feb-16 09:27N 29°46' W 095°05'1 0.5
2015-Feb-16 07:25N 29°46' W 095°06'0 0.0
2015-Feb-16 06:30N 29°46' W 095°06'0 0.0
2015-Feb-16 05:28N 29°46' W 095°06'0 0.0
2015-Feb-16 04:27N 29°46' W 095°06'0 0.0
2015-Feb-16 02:23N 29°46' W 095°06'0 0.0
2015-Feb-16 01:33N 29°46' W 095°06'0 0.0
2015-Feb-16 00:33N 29°46' W 095°06'0 0.0
2015-Feb-15 23:31N 29°46' W 095°06'0 0.0
2015-Feb-15 22:26N 29°46' W 095°06'0 0.0
2015-Feb-15 21:32N 29°46' W 095°06'0 0.0
2015-Feb-15 20:31N 29°46' W 095°06'0 0.0
2015-Feb-15 19:33N 29°46' W 095°06'0 0.0
2015-Feb-15 18:33N 29°46' W 095°06'0 0.0
2015-Feb-15 17:33N 29°46' W 095°06'0 0.0
2015-Feb-15 16:33N 29°46' W 095°06'0 0.0
2015-Feb-15 15:15N 29°46' W 095°06'0 0.0
2015-Feb-15 05:10N 29°46' W 095°06'0 0.0
2015-Feb-15 04:27N 29°46' W 095°06'0 0.0
2015-Feb-15 03:33N 29°46' W 095°06'0 0.0
2015-Feb-15 02:33N 29°46' W 095°06'1 1.3
2015-Feb-15 01:32N 29°47' W 095°05'0 0.1
2015-Feb-14 23:18N 29°46' W 095°05'2 2.5
2015-Feb-14 22:33N 29°45' W 095°06'5 4.8
2015-Feb-14 21:33N 29°45' W 095°12'1 1.4
2015-Feb-14 20:33N 29°44' W 095°13'0 0.0
2015-Feb-14 19:33N 29°44' W 095°13'0 0.0
2015-Feb-14 18:33N 29°44' W 095°13'0 0.0
2015-Feb-14 17:33N 29°44' W 095°13'0 0.0
2015-Feb-14 16:33N 29°44' W 095°13'0 0.0
2015-Feb-14 15:33N 29°44' W 095°13'0 0.0
2015-Feb-14 14:33N 29°44' W 095°13'0 0.0
2015-Feb-14 13:13N 29°44' W 095°13'0 0.0
2015-Feb-14 12:33N 29°44' W 095°13'0 0.0
2015-Feb-14 11:33N 29°44' W 095°13'0 0.0
2015-Feb-14 10:33N 29°44' W 095°13'0 0.0
2015-Feb-14 09:27N 29°44' W 095°13'0 0.0
2015-Feb-14 08:33N 29°44' W 095°13'0 0.0
2015-Feb-14 07:33N 29°44' W 095°13'0 0.0
2015-Feb-14 06:33N 29°44' W 095°13'0 0.0
2015-Feb-14 05:33N 29°44' W 095°13'0 0.0
2015-Feb-14 04:34N 29°44' W 095°13'0 0.0
2015-Feb-14 03:33N 29°44' W 095°13'0 0.0
2015-Feb-14 02:33N 29°44' W 095°13'0 0.0
2015-Feb-14 01:33N 29°44' W 095°13'0 0.0
2015-Feb-14 00:33N 29°44' W 095°13'0 0.0
2015-Feb-13 23:33N 29°44' W 095°13'0 0.0
2015-Feb-13 22:33N 29°44' W 095°13'0 0.0
2015-Feb-13 21:33N 29°44' W 095°13'3 2.8
2015-Feb-13 20:33N 29°45' W 095°10'3 2.8
2015-Feb-13 19:33N 29°45' W 095°06'0 0.0
2015-Feb-13 18:33N 29°45' W 095°06'0 0.0
2015-Feb-13 17:33N 29°45' W 095°06'0 0.0
2015-Feb-13 16:33N 29°45' W 095°06'0 0.0
2015-Feb-13 15:33N 29°45' W 095°06'0 0.0
2015-Feb-13 14:33N 29°45' W 095°06'0 0.0
2015-Feb-13 13:33N 29°45' W 095°06'0 0.0
2015-Feb-13 12:33N 29°45' W 095°06'0 0.0
2015-Feb-13 11:33N 29°45' W 095°06'0 0.0
2015-Feb-13 10:33N 29°45' W 095°06'0 0.0
2015-Feb-13 09:33N 29°45' W 095°06'0 0.0
2015-Feb-13 08:33N 29°45' W 095°06'0 0.0
2015-Feb-13 07:33N 29°45' W 095°06'0 0.0
2015-Feb-13 06:33N 29°45' W 095°06'0 0.0
2015-Feb-13 05:33N 29°45' W 095°06'0 0.0
2015-Feb-13 04:33N 29°45' W 095°06'0 0.0
2015-Feb-13 03:33N 29°45' W 095°06'0 0.0
2015-Feb-13 02:33N 29°45' W 095°06'0 0.0
2015-Feb-13 01:33N 29°45' W 095°06'0 0.0
2015-Feb-13 00:34N 29°45' W 095°06'0 0.0
2015-Feb-12 23:33N 29°45' W 095°06'2 1.5
2015-Feb-12 22:33N 29°46' W 095°05'2 1.8
2015-Feb-12 21:33N 29°47' W 095°04'2 2.0
2015-Feb-12 20:33N 29°47' W 095°06'0 0.0
2015-Feb-12 19:33N 29°47' W 095°06'0 0.0
2015-Feb-12 18:33N 29°47' W 095°06'0 0.0
2015-Feb-12 17:33N 29°47' W 095°06'0 0.0
2015-Feb-12 16:33N 29°47' W 095°06'0 0.0
2015-Feb-12 15:33N 29°47' W 095°06'0 0.0
2015-Feb-12 14:33N 29°47' W 095°06'0 0.0
2015-Feb-12 13:33N 29°47' W 095°06'0 0.0
2015-Feb-12 12:33N 29°47' W 095°06'0 0.0
2015-Feb-12 11:33N 29°47' W 095°06'0 0.0
2015-Feb-12 10:33N 29°47' W 095°06'0 0.0
2015-Feb-12 09:33N 29°47' W 095°06'0 0.0
2015-Feb-12 08:33N 29°47' W 095°06'0 0.0
2015-Feb-12 07:33N 29°47' W 095°06'0 0.0
2015-Feb-12 06:33N 29°47' W 095°06'0 0.0
2015-Feb-12 05:33N 29°47' W 095°06'0 0.0
2015-Feb-12 04:33N 29°47' W 095°06'0 0.0
2015-Feb-12 03:33N 29°47' W 095°06'0 0.0
2015-Feb-12 02:33N 29°47' W 095°06'0 0.0
2015-Feb-12 01:33N 29°47' W 095°06'0 0.0
2015-Feb-12 00:33N 29°47' W 095°06'0 0.0
2015-Feb-11 23:33N 29°47' W 095°06'0 0.0
2015-Feb-11 22:33N 29°47' W 095°06'0 0.0
2015-Feb-11 21:33N 29°47' W 095°06'1 1.4
2015-Feb-11 20:33N 29°46' W 095°06'0 0.0
2015-Feb-11 19:33N 29°46' W 095°06'2 2.3
2015-Feb-11 18:33N 29°47' W 095°04'2 2.0
2015-Feb-11 17:33N 29°45' W 095°04'5 4.8
2015-Feb-11 16:33N 29°42' W 094°60'7 7.0
2015-Feb-11 15:33N 29°36' W 094°56'7 7.2
2015-Feb-11 14:33N 29°29' W 094°52'  

Dump ship's entire track history